sensor_id;sensor_type;location;lat;lon;timestamp;P1;durP1;ratioP1;P2;durP2;ratioP2
3133;SDS011;1577;49.912;10.924;2024-02-28T00:00:54;20.33;;;11.73;;
3133;SDS011;1577;49.912;10.924;2024-02-28T00:03:20;19.30;;;12.10;;
3133;SDS011;1577;49.912;10.924;2024-02-28T00:05:47;23.47;;;13.13;;
3133;SDS011;1577;49.912;10.924;2024-02-28T00:08:13;25.43;;;12.73;;
3133;SDS011;1577;49.912;10.924;2024-02-28T00:10:38;18.37;;;11.10;;
3133;SDS011;1577;49.912;10.924;2024-02-28T00:13:04;25.33;;;12.13;;
3133;SDS011;1577;49.912;10.924;2024-02-28T00:15:30;23.50;;;12.20;;
3133;SDS011;1577;49.912;10.924;2024-02-28T00:17:55;21.23;;;12.17;;
3133;SDS011;1577;49.912;10.924;2024-02-28T00:20:21;22.90;;;12.20;;
3133;SDS011;1577;49.912;10.924;2024-02-28T00:22:47;20.67;;;11.70;;
3133;SDS011;1577;49.912;10.924;2024-02-28T00:25:13;23.20;;;12.43;;
3133;SDS011;1577;49.912;10.924;2024-02-28T00:27:39;22.83;;;12.10;;
3133;SDS011;1577;49.912;10.924;2024-02-28T00:30:05;23.40;;;11.93;;
3133;SDS011;1577;49.912;10.924;2024-02-28T00:32:31;25.27;;;11.87;;
3133;SDS011;1577;49.912;10.924;2024-02-28T00:34:57;25.97;;;11.60;;
3133;SDS011;1577;49.912;10.924;2024-02-28T00:37:23;22.47;;;12.10;;
3133;SDS011;1577;49.912;10.924;2024-02-28T00:39:49;21.20;;;11.10;;
3133;SDS011;1577;49.912;10.924;2024-02-28T00:42:15;23.53;;;12.10;;
3133;SDS011;1577;49.912;10.924;2024-02-28T00:44:40;21.20;;;11.60;;
3133;SDS011;1577;49.912;10.924;2024-02-28T00:47:07;22.43;;;12.23;;
3133;SDS011;1577;49.912;10.924;2024-02-28T00:49:36;29.97;;;13.10;;
3133;SDS011;1577;49.912;10.924;2024-02-28T00:52:02;22.07;;;12.67;;
3133;SDS011;1577;49.912;10.924;2024-02-28T00:54:27;23.17;;;11.57;;
3133;SDS011;1577;49.912;10.924;2024-02-28T00:56:53;22.73;;;11.80;;
3133;SDS011;1577;49.912;10.924;2024-02-28T00:59:19;26.03;;;12.67;;
3133;SDS011;1577;49.912;10.924;2024-02-28T01:01:44;20.40;;;11.03;;
3133;SDS011;1577;49.912;10.924;2024-02-28T01:04:10;20.50;;;10.87;;
3133;SDS011;1577;49.912;10.924;2024-02-28T01:06:35;21.67;;;12.10;;
3133;SDS011;1577;49.912;10.924;2024-02-28T01:09:02;24.50;;;12.80;;
3133;SDS011;1577;49.912;10.924;2024-02-28T01:11:28;24.60;;;12.00;;
3133;SDS011;1577;49.912;10.924;2024-02-28T01:13:53;18.40;;;10.23;;
3133;SDS011;1577;49.912;10.924;2024-02-28T01:16:19;21.30;;;11.37;;
3133;SDS011;1577;49.912;10.924;2024-02-28T01:18:44;21.00;;;11.53;;
3133;SDS011;1577;49.912;10.924;2024-02-28T01:21:10;22.73;;;11.27;;
3133;SDS011;1577;49.912;10.924;2024-02-28T01:23:35;21.63;;;12.30;;
3133;SDS011;1577;49.912;10.924;2024-02-28T01:26:01;20.23;;;11.17;;
3133;SDS011;1577;49.912;10.924;2024-02-28T01:28:31;24.67;;;11.30;;
3133;SDS011;1577;49.912;10.924;2024-02-28T01:30:56;22.30;;;12.10;;
3133;SDS011;1577;49.912;10.924;2024-02-28T01:33:23;20.90;;;10.83;;
3133;SDS011;1577;49.912;10.924;2024-02-28T01:35:48;19.10;;;11.53;;
3133;SDS011;1577;49.912;10.924;2024-02-28T01:38:14;20.27;;;11.20;;
3133;SDS011;1577;49.912;10.924;2024-02-28T01:40:43;21.43;;;11.30;;
3133;SDS011;1577;49.912;10.924;2024-02-28T01:43:12;21.50;;;10.20;;
3133;SDS011;1577;49.912;10.924;2024-02-28T01:45:38;23.33;;;11.50;;
3133;SDS011;1577;49.912;10.924;2024-02-28T01:48:05;19.77;;;10.87;;
3133;SDS011;1577;49.912;10.924;2024-02-28T01:50:35;20.30;;;10.53;;
3133;SDS011;1577;49.912;10.924;2024-02-28T01:53:02;16.83;;;10.30;;
3133;SDS011;1577;49.912;10.924;2024-02-28T01:55:28;15.70;;;9.80;;
3133;SDS011;1577;49.912;10.924;2024-02-28T01:57:55;18.10;;;10.43;;
3133;SDS011;1577;49.912;10.924;2024-02-28T02:00:21;16.17;;;10.03;;
3133;SDS011;1577;49.912;10.924;2024-02-28T02:02:47;19.30;;;11.00;;
3133;SDS011;1577;49.912;10.924;2024-02-28T02:05:13;16.13;;;10.63;;
3133;SDS011;1577;49.912;10.924;2024-02-28T02:07:41;16.67;;;9.53;;
3133;SDS011;1577;49.912;10.924;2024-02-28T02:10:07;18.57;;;9.20;;
3133;SDS011;1577;49.912;10.924;2024-02-28T02:12:35;16.00;;;9.23;;
3133;SDS011;1577;49.912;10.924;2024-02-28T02:15:01;16.30;;;8.03;;
3133;SDS011;1577;49.912;10.924;2024-02-28T02:17:27;17.20;;;9.63;;
3133;SDS011;1577;49.912;10.924;2024-02-28T02:19:52;17.37;;;10.53;;
3133;SDS011;1577;49.912;10.924;2024-02-28T02:22:18;18.43;;;10.23;;
3133;SDS011;1577;49.912;10.924;2024-02-28T02:24:45;18.97;;;9.73;;
3133;SDS011;1577;49.912;10.924;2024-02-28T02:27:10;14.40;;;9.10;;
3133;SDS011;1577;49.912;10.924;2024-02-28T02:29:36;15.33;;;9.20;;
3133;SDS011;1577;49.912;10.924;2024-02-28T02:32:03;13.27;;;8.83;;
3133;SDS011;1577;49.912;10.924;2024-02-28T02:34:29;14.33;;;9.10;;
3133;SDS011;1577;49.912;10.924;2024-02-28T02:36:55;14.40;;;9.10;;
3133;SDS011;1577;49.912;10.924;2024-02-28T02:39:20;13.83;;;9.20;;
3133;SDS011;1577;49.912;10.924;2024-02-28T02:41:46;14.90;;;8.90;;
3133;SDS011;1577;49.912;10.924;2024-02-28T02:44:12;10.33;;;7.47;;
3133;SDS011;1577;49.912;10.924;2024-02-28T02:46:38;15.77;;;7.83;;
3133;SDS011;1577;49.912;10.924;2024-02-28T02:49:04;14.63;;;8.80;;
3133;SDS011;1577;49.912;10.924;2024-02-28T02:51:29;12.03;;;8.17;;
3133;SDS011;1577;49.912;10.924;2024-02-28T02:53:55;13.30;;;8.20;;
3133;SDS011;1577;49.912;10.924;2024-02-28T02:56:21;11.83;;;8.50;;
3133;SDS011;1577;49.912;10.924;2024-02-28T02:58:46;14.07;;;7.83;;
3133;SDS011;1577;49.912;10.924;2024-02-28T03:01:12;10.63;;;7.20;;
3133;SDS011;1577;49.912;10.924;2024-02-28T03:03:37;13.43;;;7.20;;
3133;SDS011;1577;49.912;10.924;2024-02-28T03:06:03;14.70;;;9.00;;
3133;SDS011;1577;49.912;10.924;2024-02-28T03:08:30;12.13;;;7.60;;
3133;SDS011;1577;49.912;10.924;2024-02-28T03:10:56;16.53;;;8.67;;
3133;SDS011;1577;49.912;10.924;2024-02-28T03:13:21;16.07;;;8.33;;
3133;SDS011;1577;49.912;10.924;2024-02-28T03:15:47;12.10;;;7.50;;
3133;SDS011;1577;49.912;10.924;2024-02-28T03:18:13;11.70;;;7.97;;
3133;SDS011;1577;49.912;10.924;2024-02-28T03:20:38;11.70;;;7.23;;
3133;SDS011;1577;49.912;10.924;2024-02-28T03:23:04;12.93;;;7.90;;
3133;SDS011;1577;49.912;10.924;2024-02-28T03:25:31;10.90;;;7.20;;
3133;SDS011;1577;49.912;10.924;2024-02-28T03:27:57;14.93;;;8.07;;
3133;SDS011;1577;49.912;10.924;2024-02-28T03:30:24;12.63;;;7.00;;
3133;SDS011;1577;49.912;10.924;2024-02-28T03:32:50;13.47;;;7.53;;
3133;SDS011;1577;49.912;10.924;2024-02-28T03:35:15;10.83;;;6.83;;
3133;SDS011;1577;49.912;10.924;2024-02-28T03:37:41;10.47;;;7.10;;
3133;SDS011;1577;49.912;10.924;2024-02-28T03:40:07;11.53;;;7.30;;
3133;SDS011;1577;49.912;10.924;2024-02-28T03:42:33;11.40;;;7.63;;
3133;SDS011;1577;49.912;10.924;2024-02-28T03:44:58;10.00;;;6.97;;
3133;SDS011;1577;49.912;10.924;2024-02-28T03:47:24;10.67;;;7.00;;
3133;SDS011;1577;49.912;10.924;2024-02-28T03:49:50;13.03;;;7.90;;
3133;SDS011;1577;49.912;10.924;2024-02-28T03:52:16;13.10;;;8.00;;
3133;SDS011;1577;49.912;10.924;2024-02-28T03:54:42;11.10;;;7.03;;
3133;SDS011;1577;49.912;10.924;2024-02-28T03:57:08;14.97;;;7.87;;
3133;SDS011;1577;49.912;10.924;2024-02-28T03:59:34;13.17;;;8.10;;
3133;SDS011;1577;49.912;10.924;2024-02-28T04:02:00;12.20;;;7.93;;
3133;SDS011;1577;49.912;10.924;2024-02-28T04:04:25;11.90;;;7.43;;
3133;SDS011;1577;49.912;10.924;2024-02-28T04:06:51;12.97;;;7.50;;
3133;SDS011;1577;49.912;10.924;2024-02-28T04:09:17;12.20;;;8.07;;
3133;SDS011;1577;49.912;10.924;2024-02-28T04:11:42;10.63;;;7.90;;
3133;SDS011;1577;49.912;10.924;2024-02-28T04:14:08;12.37;;;7.70;;
3133;SDS011;1577;49.912;10.924;2024-02-28T04:16:34;9.70;;;6.57;;
3133;SDS011;1577;49.912;10.924;2024-02-28T04:19:05;11.87;;;7.90;;
3133;SDS011;1577;49.912;10.924;2024-02-28T04:21:31;14.43;;;8.73;;
3133;SDS011;1577;49.912;10.924;2024-02-28T04:23:56;10.50;;;7.63;;
3133;SDS011;1577;49.912;10.924;2024-02-28T04:26:22;11.83;;;7.47;;
3133;SDS011;1577;49.912;10.924;2024-02-28T04:28:47;14.70;;;8.80;;
3133;SDS011;1577;49.912;10.924;2024-02-28T04:31:13;12.03;;;7.43;;
3133;SDS011;1577;49.912;10.924;2024-02-28T04:33:38;12.00;;;7.63;;
3133;SDS011;1577;49.912;10.924;2024-02-28T04:36:04;10.70;;;6.93;;
3133;SDS011;1577;49.912;10.924;2024-02-28T04:38:30;11.50;;;7.43;;
3133;SDS011;1577;49.912;10.924;2024-02-28T04:40:55;14.10;;;8.47;;
3133;SDS011;1577;49.912;10.924;2024-02-28T04:43:21;13.77;;;8.00;;
3133;SDS011;1577;49.912;10.924;2024-02-28T04:45:46;15.77;;;8.60;;
3133;SDS011;1577;49.912;10.924;2024-02-28T04:48:12;14.13;;;8.33;;
3133;SDS011;1577;49.912;10.924;2024-02-28T04:50:37;13.60;;;8.57;;
3133;SDS011;1577;49.912;10.924;2024-02-28T04:53:03;12.93;;;7.87;;
3133;SDS011;1577;49.912;10.924;2024-02-28T04:55:29;12.10;;;7.63;;
3133;SDS011;1577;49.912;10.924;2024-02-28T04:57:54;12.40;;;8.13;;
3133;SDS011;1577;49.912;10.924;2024-02-28T05:00:20;13.30;;;8.73;;
3133;SDS011;1577;49.912;10.924;2024-02-28T05:02:45;10.97;;;7.77;;
3133;SDS011;1577;49.912;10.924;2024-02-28T05:05:11;16.23;;;8.90;;
3133;SDS011;1577;49.912;10.924;2024-02-28T05:07:37;13.27;;;8.77;;
3133;SDS011;1577;49.912;10.924;2024-02-28T05:10:02;13.00;;;8.57;;
3133;SDS011;1577;49.912;10.924;2024-02-28T05:12:28;14.17;;;9.30;;
3133;SDS011;1577;49.912;10.924;2024-02-28T05:14:53;18.50;;;9.80;;
3133;SDS011;1577;49.912;10.924;2024-02-28T05:17:19;14.07;;;8.50;;
3133;SDS011;1577;49.912;10.924;2024-02-28T05:19:45;13.50;;;8.50;;
3133;SDS011;1577;49.912;10.924;2024-02-28T05:22:10;15.63;;;9.73;;
3133;SDS011;1577;49.912;10.924;2024-02-28T05:24:36;14.57;;;8.73;;
3133;SDS011;1577;49.912;10.924;2024-02-28T05:27:02;13.00;;;8.70;;
3133;SDS011;1577;49.912;10.924;2024-02-28T05:29:27;15.20;;;8.23;;
3133;SDS011;1577;49.912;10.924;2024-02-28T05:31:53;15.57;;;8.00;;
3133;SDS011;1577;49.912;10.924;2024-02-28T05:34:18;17.90;;;10.43;;
3133;SDS011;1577;49.912;10.924;2024-02-28T05:36:44;16.40;;;8.60;;
3133;SDS011;1577;49.912;10.924;2024-02-28T05:39:10;15.73;;;9.07;;
3133;SDS011;1577;49.912;10.924;2024-02-28T05:41:36;13.73;;;7.53;;
3133;SDS011;1577;49.912;10.924;2024-02-28T05:44:01;13.37;;;8.63;;
3133;SDS011;1577;49.912;10.924;2024-02-28T05:46:27;26.17;;;13.50;;
3133;SDS011;1577;49.912;10.924;2024-02-28T05:48:52;14.30;;;9.03;;
3133;SDS011;1577;49.912;10.924;2024-02-28T05:51:19;13.73;;;8.00;;
3133;SDS011;1577;49.912;10.924;2024-02-28T05:53:45;17.20;;;9.70;;
3133;SDS011;1577;49.912;10.924;2024-02-28T05:56:10;23.50;;;15.60;;
3133;SDS011;1577;49.912;10.924;2024-02-28T05:58:39;14.97;;;10.50;;
3133;SDS011;1577;49.912;10.924;2024-02-28T06:01:06;11.90;;;8.20;;
3133;SDS011;1577;49.912;10.924;2024-02-28T06:03:32;15.63;;;10.83;;
3133;SDS011;1577;49.912;10.924;2024-02-28T06:05:58;18.13;;;9.40;;
3133;SDS011;1577;49.912;10.924;2024-02-28T06:08:23;12.23;;;9.20;;
3133;SDS011;1577;49.912;10.924;2024-02-28T06:10:49;15.03;;;8.33;;
3133;SDS011;1577;49.912;10.924;2024-02-28T06:13:17;14.73;;;9.20;;
3133;SDS011;1577;49.912;10.924;2024-02-28T06:15:43;14.70;;;8.37;;
3133;SDS011;1577;49.912;10.924;2024-02-28T06:18:08;13.57;;;8.10;;
3133;SDS011;1577;49.912;10.924;2024-02-28T06:20:34;17.25;;;10.85;;
3133;SDS011;1577;49.912;10.924;2024-02-28T06:23:00;16.17;;;9.50;;
3133;SDS011;1577;49.912;10.924;2024-02-28T06:25:25;14.93;;;8.67;;
3133;SDS011;1577;49.912;10.924;2024-02-28T06:27:53;14.13;;;8.57;;
3133;SDS011;1577;49.912;10.924;2024-02-28T06:30:19;17.60;;;9.30;;
3133;SDS011;1577;49.912;10.924;2024-02-28T06:32:44;15.10;;;8.60;;
3133;SDS011;1577;49.912;10.924;2024-02-28T06:35:10;13.50;;;8.50;;
3133;SDS011;1577;49.912;10.924;2024-02-28T06:37:35;13.83;;;9.57;;
3133;SDS011;1577;49.912;10.924;2024-02-28T06:40:02;15.00;;;8.40;;
3133;SDS011;1577;49.912;10.924;2024-02-28T06:42:33;15.87;;;9.40;;
3133;SDS011;1577;49.912;10.924;2024-02-28T06:45:01;18.97;;;10.37;;
3133;SDS011;1577;49.912;10.924;2024-02-28T06:47:27;15.43;;;9.00;;
3133;SDS011;1577;49.912;10.924;2024-02-28T06:49:53;14.50;;;8.90;;
3133;SDS011;1577;49.912;10.924;2024-02-28T06:52:18;17.10;;;10.07;;
3133;SDS011;1577;49.912;10.924;2024-02-28T06:54:44;17.77;;;9.13;;
3133;SDS011;1577;49.912;10.924;2024-02-28T06:57:09;18.23;;;9.60;;
3133;SDS011;1577;49.912;10.924;2024-02-28T06:59:36;16.30;;;9.50;;
3133;SDS011;1577;49.912;10.924;2024-02-28T07:02:02;21.20;;;10.00;;
3133;SDS011;1577;49.912;10.924;2024-02-28T07:04:27;16.00;;;8.80;;
3133;SDS011;1577;49.912;10.924;2024-02-28T07:06:53;17.83;;;10.33;;
3133;SDS011;1577;49.912;10.924;2024-02-28T07:09:18;16.93;;;9.50;;
3133;SDS011;1577;49.912;10.924;2024-02-28T07:11:44;14.50;;;9.83;;
3133;SDS011;1577;49.912;10.924;2024-02-28T07:14:09;17.97;;;10.47;;
3133;SDS011;1577;49.912;10.924;2024-02-28T07:16:35;15.13;;;9.67;;
3133;SDS011;1577;49.912;10.924;2024-02-28T07:19:01;19.27;;;10.67;;
3133;SDS011;1577;49.912;10.924;2024-02-28T07:21:26;14.60;;;9.07;;
3133;SDS011;1577;49.912;10.924;2024-02-28T07:23:52;16.50;;;9.37;;
3133;SDS011;1577;49.912;10.924;2024-02-28T07:26:19;18.33;;;10.20;;
3133;SDS011;1577;49.912;10.924;2024-02-28T07:28:44;16.47;;;8.70;;
3133;SDS011;1577;49.912;10.924;2024-02-28T07:31:15;17.37;;;9.00;;
3133;SDS011;1577;49.912;10.924;2024-02-28T07:33:44;16.17;;;9.07;;
3133;SDS011;1577;49.912;10.924;2024-02-28T07:36:10;18.60;;;10.03;;
3133;SDS011;1577;49.912;10.924;2024-02-28T07:38:36;15.10;;;9.20;;
3133;SDS011;1577;49.912;10.924;2024-02-28T07:41:02;15.50;;;9.23;;
3133;SDS011;1577;49.912;10.924;2024-02-28T07:43:29;15.87;;;7.70;;
3133;SDS011;1577;49.912;10.924;2024-02-28T07:45:58;16.00;;;9.40;;
3133;SDS011;1577;49.912;10.924;2024-02-28T07:48:24;15.50;;;9.40;;
3133;SDS011;1577;49.912;10.924;2024-02-28T07:50:49;14.30;;;9.57;;
3133;SDS011;1577;49.912;10.924;2024-02-28T07:53:16;14.70;;;8.03;;
3133;SDS011;1577;49.912;10.924;2024-02-28T07:55:42;15.43;;;8.87;;
3133;SDS011;1577;49.912;10.924;2024-02-28T07:58:07;18.33;;;9.90;;
3133;SDS011;1577;49.912;10.924;2024-02-28T08:00:34;16.83;;;9.87;;
3133;SDS011;1577;49.912;10.924;2024-02-28T08:03:00;17.50;;;8.93;;
3133;SDS011;1577;49.912;10.924;2024-02-28T08:05:25;15.33;;;9.40;;
3133;SDS011;1577;49.912;10.924;2024-02-28T08:07:51;13.90;;;9.10;;
3133;SDS011;1577;49.912;10.924;2024-02-28T08:10:17;17.03;;;9.27;;
3133;SDS011;1577;49.912;10.924;2024-02-28T08:12:42;17.97;;;9.57;;
3133;SDS011;1577;49.912;10.924;2024-02-28T08:15:08;18.90;;;9.67;;
3133;SDS011;1577;49.912;10.924;2024-02-28T08:17:34;17.80;;;9.37;;
3133;SDS011;1577;49.912;10.924;2024-02-28T08:20:00;16.60;;;10.03;;
3133;SDS011;1577;49.912;10.924;2024-02-28T08:22:26;19.53;;;9.37;;
3133;SDS011;1577;49.912;10.924;2024-02-28T08:24:51;19.07;;;9.50;;
3133;SDS011;1577;49.912;10.924;2024-02-28T08:27:17;15.53;;;8.73;;
3133;SDS011;1577;49.912;10.924;2024-02-28T08:29:43;20.10;;;9.43;;
3133;SDS011;1577;49.912;10.924;2024-02-28T08:32:10;15.60;;;9.10;;
3133;SDS011;1577;49.912;10.924;2024-02-28T08:34:36;14.23;;;8.50;;
3133;SDS011;1577;49.912;10.924;2024-02-28T08:37:02;16.40;;;9.83;;
3133;SDS011;1577;49.912;10.924;2024-02-28T08:39:27;15.93;;;9.20;;
3133;SDS011;1577;49.912;10.924;2024-02-28T08:41:53;18.33;;;9.93;;
3133;SDS011;1577;49.912;10.924;2024-02-28T08:44:18;19.83;;;9.73;;
3133;SDS011;1577;49.912;10.924;2024-02-28T08:46:46;17.33;;;9.80;;
3133;SDS011;1577;49.912;10.924;2024-02-28T08:49:13;18.37;;;10.87;;
3133;SDS011;1577;49.912;10.924;2024-02-28T08:51:39;16.57;;;9.87;;
3133;SDS011;1577;49.912;10.924;2024-02-28T08:54:05;15.87;;;9.50;;
3133;SDS011;1577;49.912;10.924;2024-02-28T08:56:31;15.80;;;9.73;;
3133;SDS011;1577;49.912;10.924;2024-02-28T08:58:56;23.90;;;12.17;;
3133;SDS011;1577;49.912;10.924;2024-02-28T09:01:22;28.00;;;15.57;;
3133;SDS011;1577;49.912;10.924;2024-02-28T09:03:47;34.97;;;19.63;;
3133;SDS011;1577;49.912;10.924;2024-02-28T09:09:35;13.20;;;8.33;;
3133;SDS011;1577;49.912;10.924;2024-02-28T09:12:03;17.13;;;9.27;;
3133;SDS011;1577;49.912;10.924;2024-02-28T09:14:28;14.37;;;9.50;;
3133;SDS011;1577;49.912;10.924;2024-02-28T09:16:54;17.70;;;9.80;;
3133;SDS011;1577;49.912;10.924;2024-02-28T09:19:26;13.67;;;8.93;;
3133;SDS011;1577;49.912;10.924;2024-02-28T09:21:52;16.10;;;8.83;;
3133;SDS011;1577;49.912;10.924;2024-02-28T09:24:17;15.47;;;9.83;;
3133;SDS011;1577;49.912;10.924;2024-02-28T09:26:43;18.80;;;9.73;;
3133;SDS011;1577;49.912;10.924;2024-02-28T09:29:08;14.87;;;9.40;;
3133;SDS011;1577;49.912;10.924;2024-02-28T09:31:34;15.43;;;9.40;;
3133;SDS011;1577;49.912;10.924;2024-02-28T09:34:00;18.10;;;10.03;;
3133;SDS011;1577;49.912;10.924;2024-02-28T09:36:29;13.57;;;9.20;;
3133;SDS011;1577;49.912;10.924;2024-02-28T09:38:54;13.43;;;9.33;;
3133;SDS011;1577;49.912;10.924;2024-02-28T09:41:21;14.93;;;8.77;;
3133;SDS011;1577;49.912;10.924;2024-02-28T09:43:47;13.37;;;8.13;;
3133;SDS011;1577;49.912;10.924;2024-02-28T09:46:13;14.13;;;8.53;;
3133;SDS011;1577;49.912;10.924;2024-02-28T09:48:40;15.73;;;9.30;;
3133;SDS011;1577;49.912;10.924;2024-02-28T09:51:06;15.23;;;9.40;;
3133;SDS011;1577;49.912;10.924;2024-02-28T09:53:33;13.00;;;8.57;;
3133;SDS011;1577;49.912;10.924;2024-02-28T09:55:58;16.17;;;8.60;;
3133;SDS011;1577;49.912;10.924;2024-02-28T09:58:24;13.50;;;8.33;;
3133;SDS011;1577;49.912;10.924;2024-02-28T10:00:51;16.77;;;8.80;;
3133;SDS011;1577;49.912;10.924;2024-02-28T10:03:20;12.43;;;8.60;;
3133;SDS011;1577;49.912;10.924;2024-02-28T10:05:48;15.57;;;10.03;;
3133;SDS011;1577;49.912;10.924;2024-02-28T10:08:14;13.77;;;8.50;;
3133;SDS011;1577;49.912;10.924;2024-02-28T10:10:50;14.10;;;8.80;;
3133;SDS011;1577;49.912;10.924;2024-02-28T10:13:20;12.87;;;8.27;;
3133;SDS011;1577;49.912;10.924;2024-02-28T10:15:47;13.83;;;8.40;;
3133;SDS011;1577;49.912;10.924;2024-02-28T10:18:13;12.50;;;8.30;;
3133;SDS011;1577;49.912;10.924;2024-02-28T10:20:39;11.10;;;8.20;;
3133;SDS011;1577;49.912;10.924;2024-02-28T10:23:08;20.80;;;8.63;;
3133;SDS011;1577;49.912;10.924;2024-02-28T10:25:44;15.03;;;8.53;;
3133;SDS011;1577;49.912;10.924;2024-02-28T10:28:11;16.13;;;9.27;;
3133;SDS011;1577;49.912;10.924;2024-02-28T10:30:38;16.53;;;8.97;;
3133;SDS011;1577;49.912;10.924;2024-02-28T10:33:11;11.93;;;7.63;;
3133;SDS011;1577;49.912;10.924;2024-02-28T10:35:38;15.53;;;8.93;;
3133;SDS011;1577;49.912;10.924;2024-02-28T10:38:05;11.70;;;7.70;;
3133;SDS011;1577;49.912;10.924;2024-02-28T10:40:31;12.83;;;8.27;;
3133;SDS011;1577;49.912;10.924;2024-02-28T10:42:57;11.53;;;7.67;;
3133;SDS011;1577;49.912;10.924;2024-02-28T10:45:24;9.90;;;7.27;;
3133;SDS011;1577;49.912;10.924;2024-02-28T10:47:51;13.33;;;7.80;;
3133;SDS011;1577;49.912;10.924;2024-02-28T10:50:17;9.83;;;6.50;;
3133;SDS011;1577;49.912;10.924;2024-02-28T10:52:43;8.37;;;6.30;;
3133;SDS011;1577;49.912;10.924;2024-02-28T10:55:12;8.60;;;6.13;;
3133;SDS011;1577;49.912;10.924;2024-02-28T10:57:38;10.07;;;6.40;;
3133;SDS011;1577;49.912;10.924;2024-02-28T11:00:06;10.67;;;7.30;;
3133;SDS011;1577;49.912;10.924;2024-02-28T11:02:33;13.40;;;6.30;;
3133;SDS011;1577;49.912;10.924;2024-02-28T11:04:59;10.27;;;7.20;;
3133;SDS011;1577;49.912;10.924;2024-02-28T11:07:26;12.80;;;9.33;;
3133;SDS011;1577;49.912;10.924;2024-02-28T11:09:55;10.97;;;6.63;;
3133;SDS011;1577;49.912;10.924;2024-02-28T11:12:27;9.43;;;6.27;;
3133;SDS011;1577;49.912;10.924;2024-02-28T11:15:00;9.47;;;6.10;;
3133;SDS011;1577;49.912;10.924;2024-02-28T11:17:28;8.60;;;6.37;;
3133;SDS011;1577;49.912;10.924;2024-02-28T11:19:54;8.07;;;6.37;;
3133;SDS011;1577;49.912;10.924;2024-02-28T11:22:21;9.60;;;6.30;;
3133;SDS011;1577;49.912;10.924;2024-02-28T11:24:47;8.97;;;6.47;;
3133;SDS011;1577;49.912;10.924;2024-02-28T11:27:13;9.23;;;7.00;;
3133;SDS011;1577;49.912;10.924;2024-02-28T11:29:39;8.40;;;5.80;;
3133;SDS011;1577;49.912;10.924;2024-02-28T11:32:05;8.43;;;6.03;;
3133;SDS011;1577;49.912;10.924;2024-02-28T11:34:31;9.67;;;6.80;;
3133;SDS011;1577;49.912;10.924;2024-02-28T11:36:57;9.30;;;5.77;;
3133;SDS011;1577;49.912;10.924;2024-02-28T11:39:23;8.23;;;5.50;;
3133;SDS011;1577;49.912;10.924;2024-02-28T11:41:54;11.33;;;7.63;;
3133;SDS011;1577;49.912;10.924;2024-02-28T11:44:20;9.60;;;7.57;;
3133;SDS011;1577;49.912;10.924;2024-02-28T11:46:46;10.17;;;6.40;;
3133;SDS011;1577;49.912;10.924;2024-02-28T11:49:15;9.77;;;6.13;;
3133;SDS011;1577;49.912;10.924;2024-02-28T11:51:41;9.03;;;6.20;;
3133;SDS011;1577;49.912;10.924;2024-02-28T11:54:10;8.07;;;5.30;;
3133;SDS011;1577;49.912;10.924;2024-02-28T11:56:37;8.60;;;5.47;;
3133;SDS011;1577;49.912;10.924;2024-02-28T11:59:03;8.20;;;5.23;;
3133;SDS011;1577;49.912;10.924;2024-02-28T12:04:02;9.07;;;6.10;;
3133;SDS011;1577;49.912;10.924;2024-02-28T12:06:29;8.73;;;6.43;;
3133;SDS011;1577;49.912;10.924;2024-02-28T12:08:55;8.10;;;5.37;;
3133;SDS011;1577;49.912;10.924;2024-02-28T12:11:21;8.63;;;5.60;;
3133;SDS011;1577;49.912;10.924;2024-02-28T12:13:52;8.43;;;5.50;;
3133;SDS011;1577;49.912;10.924;2024-02-28T12:16:18;8.03;;;4.90;;
3133;SDS011;1577;49.912;10.924;2024-02-28T12:18:47;7.90;;;5.27;;
3133;SDS011;1577;49.912;10.924;2024-02-28T12:21:13;6.63;;;5.20;;
3133;SDS011;1577;49.912;10.924;2024-02-28T12:23:39;7.67;;;5.33;;
3133;SDS011;1577;49.912;10.924;2024-02-28T12:26:04;7.60;;;5.33;;
3133;SDS011;1577;49.912;10.924;2024-02-28T12:28:30;6.83;;;4.60;;
3133;SDS011;1577;49.912;10.924;2024-02-28T12:30:55;10.60;;;6.00;;
3133;SDS011;1577;49.912;10.924;2024-02-28T12:33:21;9.10;;;5.40;;
3133;SDS011;1577;49.912;10.924;2024-02-28T12:35:47;8.00;;;5.27;;
3133;SDS011;1577;49.912;10.924;2024-02-28T12:38:13;8.13;;;5.03;;
3133;SDS011;1577;49.912;10.924;2024-02-28T12:40:40;7.00;;;4.40;;
3133;SDS011;1577;49.912;10.924;2024-02-28T12:43:07;7.83;;;4.50;;
3133;SDS011;1577;49.912;10.924;2024-02-28T12:45:33;7.47;;;5.03;;
3133;SDS011;1577;49.912;10.924;2024-02-28T12:47:58;6.07;;;3.97;;
3133;SDS011;1577;49.912;10.924;2024-02-28T12:50:26;7.40;;;4.70;;
3133;SDS011;1577;49.912;10.924;2024-02-28T12:52:52;5.90;;;4.17;;
3133;SDS011;1577;49.912;10.924;2024-02-28T12:55:19;8.33;;;5.07;;
3133;SDS011;1577;49.912;10.924;2024-02-28T12:57:46;7.17;;;4.70;;
3133;SDS011;1577;49.912;10.924;2024-02-28T13:00:12;4.90;;;3.93;;
3133;SDS011;1577;49.912;10.924;2024-02-28T13:02:38;6.50;;;4.00;;
3133;SDS011;1577;49.912;10.924;2024-02-28T13:05:04;9.27;;;4.63;;
3133;SDS011;1577;49.912;10.924;2024-02-28T13:07:29;6.30;;;4.23;;
3133;SDS011;1577;49.912;10.924;2024-02-28T13:09:55;6.73;;;3.80;;
3133;SDS011;1577;49.912;10.924;2024-02-28T13:12:21;4.70;;;3.53;;
3133;SDS011;1577;49.912;10.924;2024-02-28T13:14:47;5.23;;;3.53;;
3133;SDS011;1577;49.912;10.924;2024-02-28T13:17:13;5.60;;;2.90;;
3133;SDS011;1577;49.912;10.924;2024-02-28T13:19:40;5.30;;;3.73;;
3133;SDS011;1577;49.912;10.924;2024-02-28T13:22:05;8.30;;;3.80;;
3133;SDS011;1577;49.912;10.924;2024-02-28T13:24:31;4.30;;;3.37;;
3133;SDS011;1577;49.912;10.924;2024-02-28T13:26:57;4.73;;;3.03;;
3133;SDS011;1577;49.912;10.924;2024-02-28T13:29:22;5.30;;;3.37;;
3133;SDS011;1577;49.912;10.924;2024-02-28T13:31:48;3.33;;;3.00;;
3133;SDS011;1577;49.912;10.924;2024-02-28T13:34:14;6.27;;;3.30;;
3133;SDS011;1577;49.912;10.924;2024-02-28T13:36:39;6.00;;;3.37;;
3133;SDS011;1577;49.912;10.924;2024-02-28T13:39:07;4.50;;;2.70;;
3133;SDS011;1577;49.912;10.924;2024-02-28T13:41:34;5.57;;;3.60;;
3133;SDS011;1577;49.912;10.924;2024-02-28T13:44:00;6.10;;;3.50;;
3133;SDS011;1577;49.912;10.924;2024-02-28T13:46:25;4.43;;;2.90;;
3133;SDS011;1577;49.912;10.924;2024-02-28T13:48:51;5.30;;;3.03;;
3133;SDS011;1577;49.912;10.924;2024-02-28T13:51:16;3.70;;;3.03;;
3133;SDS011;1577;49.912;10.924;2024-02-28T13:53:42;5.47;;;2.90;;
3133;SDS011;1577;49.912;10.924;2024-02-28T13:56:08;3.40;;;2.63;;
3133;SDS011;1577;49.912;10.924;2024-02-28T13:58:33;5.37;;;3.03;;
3133;SDS011;1577;49.912;10.924;2024-02-28T14:00:59;4.80;;;2.47;;
3133;SDS011;1577;49.912;10.924;2024-02-28T14:03:24;3.27;;;2.30;;
3133;SDS011;1577;49.912;10.924;2024-02-28T14:05:50;3.33;;;2.37;;
3133;SDS011;1577;49.912;10.924;2024-02-28T14:08:17;3.90;;;2.90;;
3133;SDS011;1577;49.912;10.924;2024-02-28T14:10:42;3.80;;;2.50;;
3133;SDS011;1577;49.912;10.924;2024-02-28T14:13:08;4.63;;;3.17;;
3133;SDS011;1577;49.912;10.924;2024-02-28T14:15:37;3.10;;;2.50;;
3133;SDS011;1577;49.912;10.924;2024-02-28T14:18:02;3.47;;;2.60;;
3133;SDS011;1577;49.912;10.924;2024-02-28T14:20:28;4.03;;;2.70;;
3133;SDS011;1577;49.912;10.924;2024-02-28T14:22:54;2.80;;;2.20;;
3133;SDS011;1577;49.912;10.924;2024-02-28T14:25:21;3.13;;;2.67;;
3133;SDS011;1577;49.912;10.924;2024-02-28T14:27:47;4.03;;;3.13;;
3133;SDS011;1577;49.912;10.924;2024-02-28T14:30:13;3.63;;;2.40;;
3133;SDS011;1577;49.912;10.924;2024-02-28T14:32:40;3.33;;;2.73;;
3133;SDS011;1577;49.912;10.924;2024-02-28T14:35:08;3.60;;;2.90;;
3133;SDS011;1577;49.912;10.924;2024-02-28T14:37:35;3.17;;;2.63;;
3133;SDS011;1577;49.912;10.924;2024-02-28T14:40:01;4.73;;;3.40;;
3133;SDS011;1577;49.912;10.924;2024-02-28T14:42:35;4.17;;;2.80;;
3133;SDS011;1577;49.912;10.924;2024-02-28T14:45:13;2.93;;;2.60;;
3133;SDS011;1577;49.912;10.924;2024-02-28T14:47:42;4.07;;;2.70;;